Time;durP1;ratioP1;P1;durP2;ratioP2;P2;SDS_P1;SDS_P2;PMS_P1;PMS_P2;Temp;Humidity;BMP_temperature;BMP_pressure;BME280_temperature;BME280_humidity;BME280_pressure;Samples;Min_cycle;Max_cycle;Signal;HPM_P1;HPM_P2
2022/11/24 00:01:16;;;;;;;12.82;2.95;;;8.90;99.90;;;-144.05;76.06;125687.94;5033638;28;19909;-77
2022/11/24 00:03:46;;;;;;;16.98;3.63;;;8.80;99.90;;;-144.05;76.15;125687.94;5034814;28;20493;-78
2022/11/24 00:06:15;;;;;;;15.43;3.55;;;8.80;99.90;;;-144.05;76.77;125687.94;5034637;28;20549;-77
2022/11/24 00:08:44;;;;;;;23.67;3.92;;;8.80;99.90;;;-144.05;76.97;125687.94;5035516;28;20041;-78
2022/11/24 00:11:19;;;;;;;20.30;4.75;;;8.80;99.90;;;-144.05;76.55;125687.94;5035548;28;20033;-78
2022/11/24 00:13:46;;;;;;;15.50;3.70;;;8.80;99.90;;;-144.05;76.39;125687.94;5035436;28;20057;-78
2022/11/24 00:16:17;;;;;;;22.00;3.95;;;8.80;99.90;;;-144.05;75.71;125687.94;5049769;28;20068;-78
2022/11/24 00:18:46;;;;;;;18.20;3.70;;;8.80;99.90;;;-144.05;75.72;125687.94;5035420;28;20072;-77
2022/11/24 00:21:15;;;;;;;17.48;4.13;;;8.80;99.90;;;-144.05;75.56;125687.94;5035439;28;20030;-78
2022/11/24 00:23:41;;;;;;;17.92;3.70;;;8.80;99.90;;;-144.05;75.40;125687.94;5036179;28;20037;-79
2022/11/24 00:26:25;;;;;;;14.23;3.42;;;8.80;99.90;;;-144.05;74.90;125687.94;5036400;28;20288;-79
2022/11/24 00:28:54;;;;;;;18.45;3.55;;;8.80;99.90;;;-144.05;75.10;125687.94;5036453;28;20543;-79
2022/11/24 00:31:40;;;;;;;16.83;2.67;;;8.70;99.90;;;-144.05;75.28;125687.94;5035148;28;20484;-79
2022/11/24 00:34:11;;;;;;;14.50;2.85;;;8.60;99.90;;;-144.05;75.17;125687.94;5051451;28;20037;-79
2022/11/24 00:36:40;;;;;;;12.90;2.90;;;8.60;99.90;;;-144.05;75.65;125687.94;5035649;28;20056;-79
2022/11/24 00:39:11;;;;;;;20.17;3.92;;;8.50;99.90;;;-144.05;75.58;125687.94;5035891;28;20397;-79
2022/11/24 00:41:37;;;;;;;22.13;3.92;;;8.50;99.90;;;-144.05;75.01;125687.94;5035061;28;20030;-79
2022/11/24 00:44:04;;;;;;;19.48;3.35;;;8.50;99.90;;;-144.05;75.12;125687.94;5036512;28;20033;-79
2022/11/24 00:46:30;;;;;;;11.68;3.70;;;8.60;99.90;;;-144.05;74.95;125687.94;5035305;28;20040;-78
2022/11/24 00:48:59;;;;;;;15.23;3.33;;;8.50;99.90;;;-144.05;74.71;125687.94;5050609;28;20118;-78
2022/11/24 00:51:29;;;;;;;22.30;3.80;;;8.60;99.90;;;-144.05;74.47;125687.94;5051346;28;20029;-78
2022/11/24 00:54:00;;;;;;;17.52;3.55;;;8.60;99.90;;;-144.05;74.21;125687.94;5035228;28;20116;-78
2022/11/24 00:56:28;;;;;;;15.57;3.20;;;8.60;99.90;;;-144.05;74.42;125687.94;5034292;28;20480;-78
2022/11/24 00:58:55;;;;;;;15.15;3.35;;;8.60;99.90;;;-144.05;74.04;125687.94;5036204;28;20447;-78
2022/11/24 01:01:29;;;;;;;14.07;3.83;;;8.50;99.90;;;-144.05;73.93;125687.94;5035607;28;20029;-78
2022/11/24 01:04:00;;;;;;;14.70;3.20;;;8.50;99.90;;;-144.05;74.03;125687.94;5051970;28;20036;-79
2022/11/24 01:06:28;;;;;;;14.00;3.72;;;8.50;99.90;;;-144.05;73.85;125687.94;5035427;28;20516;-78
2022/11/24 01:08:56;;;;;;;18.17;3.85;;;8.50;99.90;;;-144.05;74.17;125687.94;5039382;28;20125;-79
2022/11/24 01:14:22;;;;;;;;;;;8.60;99.90;;;-144.05;73.07;125687.94;5037801;28;20107;-78
2022/11/24 01:16:48;;;;;;;17.55;3.28;;;8.60;99.90;;;-144.05;73.28;125687.94;5052391;28;19917;-78
2022/11/24 01:19:14;;;;;;;18.02;2.90;;;8.60;99.90;;;-144.05;73.12;125687.94;5037616;28;20472;-77
2022/11/24 01:21:40;;;;;;;14.13;3.78;;;8.50;99.90;;;-144.05;73.40;125687.94;5038520;28;20445;-77
2022/11/24 01:24:06;;;;;;;18.38;3.03;;;8.50;99.90;;;-144.05;73.08;125687.94;5036390;28;20072;-78
2022/11/24 01:26:32;;;;;;;16.85;4.13;;;8.60;99.90;;;-144.05;73.18;125687.94;5039161;28;20048;-79
2022/11/24 01:28:58;;;;;;;15.25;3.63;;;8.60;99.90;;;-144.05;73.56;125687.94;5054683;28;20021;-76
2022/11/24 01:31:26;;;;;;;17.40;4.45;;;8.50;99.90;;;-144.05;73.53;125687.94;5038052;28;20079;-76
2022/11/24 01:33:53;;;;;;;15.43;3.65;;;8.50;99.90;;;-144.05;73.64;125687.94;5034683;28;20033;-76
2022/11/24 01:36:20;;;;;;;14.00;2.90;;;8.50;99.90;;;-144.05;73.60;125687.94;5033565;28;20370;-78
2022/11/24 01:38:46;;;;;;;17.92;3.17;;;8.40;99.90;;;-144.05;74.07;125687.94;5050586;28;20083;-78
2022/11/24 01:41:23;;;;;;;15.20;3.47;;;8.40;99.90;;;-144.05;73.66;125687.94;5035483;28;20033;-78
2022/11/24 01:43:52;;;;;;;19.67;2.90;;;8.40;99.90;;;-144.05;73.92;125687.94;5050517;28;20029;-77
2022/11/24 01:46:32;;;;;;;11.48;2.70;;;8.30;99.90;;;-144.05;73.32;125687.94;5035351;28;20454;-78
2022/11/24 01:49:07;;;;;;;17.80;3.25;;;8.40;99.90;;;-144.05;73.36;125687.94;5050844;28;20126;-79
2022/11/24 01:51:41;;;;;;;15.20;2.38;;;8.40;99.90;;;-144.05;73.27;125687.94;5036362;28;20118;-78
2022/11/24 01:54:15;;;;;;;15.77;3.20;;;8.40;99.90;;;-144.05;73.10;125687.94;5035635;28;20033;-78
2022/11/24 01:56:50;;;;;;;11.55;2.53;;;8.40;99.90;;;-144.05;73.05;125687.94;5036633;28;20036;-78
2022/11/24 01:59:19;;;;;;;19.17;2.90;;;8.40;99.90;;;-144.05;73.14;125687.94;5036282;28;20044;-78
2022/11/24 02:01:51;;;;;;;18.48;3.45;;;8.40;99.90;;;-144.05;73.57;125687.94;5037649;28;20110;-79
2022/11/24 02:04:28;;;;;;;14.63;3.03;;;8.30;99.90;;;-144.05;73.70;125687.94;5038290;28;20037;-78
2022/11/24 02:07:02;;;;;;;16.52;3.00;;;8.30;99.90;;;-144.05;73.29;125687.94;5037496;28;20025;-78
2022/11/24 02:09:44;;;;;;;19.70;2.92;;;8.30;99.90;;;-144.05;73.58;125687.94;5037097;28;20029;-77
2022/11/24 02:12:10;;;;;;;18.67;3.35;;;8.30;99.90;;;-144.05;73.73;125687.94;5042814;28;20029;-77
2022/11/24 02:14:40;;;;;;;19.17;3.38;;;8.20;99.90;;;-144.05;74.17;125687.94;5040979;28;20440;-77
2022/11/24 02:17:07;;;;;;;12.75;3.05;;;8.20;99.90;;;-144.05;73.60;125687.94;5043494;28;20030;-78
2022/11/24 02:19:39;;;;;;;18.30;2.80;;;8.20;99.90;;;-144.05;73.62;125687.94;5042146;28;20021;-77
2022/11/24 02:22:37;;;;;;;17.98;2.85;;;8.20;99.90;;;-144.05;74.00;125687.94;5052650;28;20053;-78
2022/11/24 02:25:34;;;;;;;13.40;2.88;;;8.10;99.90;;;-144.05;73.57;125687.94;5035295;28;20030;-77
2022/11/24 02:28:07;;;;;;;16.17;2.75;;;8.20;99.90;;;-144.05;73.68;125687.94;5034453;28;20048;-77
2022/11/24 02:30:34;;;;;;;14.48;3.25;;;8.20;99.90;;;-144.05;74.07;125687.94;5051429;28;20497;-78
2022/11/24 02:33:01;;;;;;;13.85;3.05;;;8.20;99.90;;;-144.05;73.86;125687.94;5036056;28;20440;-78
2022/11/24 02:35:28;;;;;;;13.40;3.80;;;8.30;99.90;;;-144.05;73.63;125687.94;5035640;28;20026;-78
2022/11/24 02:37:54;;;;;;;18.90;4.15;;;8.30;99.90;;;-144.05;73.35;125687.94;5036004;28;20025;-78
2022/11/24 02:40:27;;;;;;;17.42;3.45;;;8.40;99.90;;;-144.05;72.71;125687.94;5035573;28;20037;-80
2022/11/24 02:43:06;;;;;;;25.77;3.65;;;8.50;99.90;;;-144.05;72.18;125687.94;5035716;28;20021;-79
2022/11/24 02:45:32;;;;;;;20.27;3.85;;;8.50;99.90;;;-144.05;72.70;125687.94;5051773;28;20037;-78
2022/11/24 02:47:58;;;;;;;15.75;3.13;;;8.50;99.90;;;-144.05;73.15;125687.94;5035786;28;20083;-79
2022/11/24 02:50:24;;;;;;;17.67;2.72;;;8.60;99.90;;;-144.05;72.29;125687.94;5035037;28;20034;-77
2022/11/24 02:52:50;;;;;;;14.73;2.80;;;8.60;99.90;;;-144.05;72.43;125687.94;5035402;28;20041;-79
2022/11/24 02:55:16;;;;;;;14.05;3.75;;;8.50;99.90;;;-144.05;72.44;125687.94;5035477;28;20030;-79
2022/11/24 02:57:42;;;;;;;15.85;2.42;;;8.50;99.90;;;-144.05;72.40;125687.94;5035105;28;20037;-79
2022/11/24 03:00:09;;;;;;;17.23;2.75;;;8.50;99.90;;;-144.05;72.68;125687.94;5035700;28;20025;-77
2022/11/24 03:02:35;;;;;;;19.33;3.38;;;8.50;99.90;;;-144.05;72.81;125687.94;5034845;28;20021;-78
2022/11/24 03:05:01;;;;;;;13.70;2.83;;;8.50;99.90;;;-144.05;72.90;125687.94;5035134;28;20116;-78
2022/11/24 03:07:27;;;;;;;17.45;2.80;;;8.40;99.90;;;-144.05;72.17;125687.94;5036057;28;20030;-78
2022/11/24 03:09:52;;;;;;;12.00;3.08;;;8.50;99.90;;;-144.05;72.29;125687.94;5033360;28;20059;-77
2022/11/24 03:12:18;;;;;;;22.42;3.55;;;8.50;99.90;;;-144.05;72.78;125687.94;5034010;28;20475;-79
2022/11/24 03:14:44;;;;;;;17.05;3.03;;;8.50;99.90;;;-144.05;72.76;125687.94;5032775;28;20439;-76
2022/11/24 03:17:10;;;;;;;13.10;2.90;;;8.50;99.90;;;-144.05;72.35;125687.94;5033030;28;20101;-78
2022/11/24 03:19:36;;;;;;;23.67;3.72;;;8.50;99.90;;;-144.05;72.67;125687.94;5034381;28;20037;-77
2022/11/24 03:22:02;;;;;;;18.73;3.33;;;8.40;99.90;;;-144.05;72.81;125687.94;5035451;28;20029;-78
2022/11/24 03:24:28;;;;;;;14.43;2.83;;;8.40;99.90;;;-144.05;73.10;125687.94;5033979;28;20477;-79
2022/11/24 03:26:53;;;;;;;15.25;2.70;;;8.40;99.90;;;-144.05;73.12;125687.94;5033736;28;20130;-79
2022/11/24 03:29:19;;;;;;;15.80;2.67;;;8.40;99.90;;;-144.05;72.44;125687.94;5035189;28;20033;-79
2022/11/24 03:31:45;;;;;;;15.80;3.00;;;8.40;99.90;;;-144.05;72.56;125687.94;5035342;28;20064;-78
2022/11/24 03:34:11;;;;;;;18.88;3.33;;;8.40;99.90;;;-144.05;72.53;125687.94;5037091;28;20033;-79
2022/11/24 03:36:37;;;;;;;25.17;4.20;;;8.30;99.90;;;-144.05;72.74;125687.94;5053508;28;20036;-79
2022/11/24 03:39:03;;;;;;;16.92;2.97;;;8.40;99.90;;;-144.05;72.80;125687.94;5037170;28;20064;-79
2022/11/24 03:41:28;;;;;;;17.33;3.20;;;8.40;99.90;;;-144.05;72.08;125687.94;5036433;28;20037;-78
2022/11/24 03:43:54;;;;;;;17.70;3.58;;;8.40;99.90;;;-144.05;72.34;125687.94;5036279;28;20401;-78
2022/11/24 03:46:20;;;;;;;11.48;2.72;;;8.30;99.90;;;-144.05;72.81;125687.94;5033628;28;20168;-79
2022/11/24 03:48:46;;;;;;;23.08;3.22;;;8.40;99.90;;;-144.05;72.70;125687.94;5035043;28;20029;-78
2022/11/24 03:51:12;;;;;;;17.02;2.88;;;8.40;99.90;;;-144.05;72.29;125687.94;5033114;28;20026;-78
2022/11/24 03:53:38;;;;;;;19.92;4.40;;;8.40;99.90;;;-144.05;72.34;125687.94;5043453;28;20029;-79
2022/11/24 03:56:04;;;;;;;17.60;3.60;;;8.40;99.90;;;-144.05;72.48;125687.94;5043893;28;20034;-80
2022/11/24 03:58:32;;;;;;;13.63;2.78;;;8.50;99.90;;;-144.05;72.81;125687.94;5036325;28;20049;-79
2022/11/24 04:00:58;;;;;;;18.50;3.13;;;8.50;99.90;;;-144.05;72.74;125687.94;5035186;28;20477;-79
2022/11/24 04:03:25;;;;;;;13.70;2.83;;;8.50;99.90;;;-144.05;72.70;125687.94;5035340;28;20057;-78
2022/11/24 04:05:51;;;;;;;17.23;2.92;;;8.50;99.90;;;-144.05;72.70;125687.94;5035456;28;20400;-79
2022/11/24 04:08:18;;;;;;;14.20;2.88;;;8.40;99.90;;;-144.05;73.31;125687.94;5035641;28;20100;-77
2022/11/24 04:10:48;;;;;;;16.35;2.80;;;8.40;99.90;;;-144.05;72.69;125687.94;5035919;28;20052;-78
2022/11/24 04:13:18;;;;;;;19.58;3.97;;;8.40;99.90;;;-144.05;72.75;125687.94;5050619;28;20484;-78
2022/11/24 04:15:44;;;;;;;11.68;3.70;;;8.40;99.90;;;-144.05;72.88;125687.94;5051539;23;20057;-84
2022/11/24 04:18:12;;;;;;;17.80;3.83;;;8.40;99.90;;;-144.05;72.80;125687.94;5017994;28;20121;-81
2022/11/24 04:20:40;;;;;;;12.75;3.28;;;8.40;99.90;;;-144.05;73.13;125687.94;5016535;28;20029;-81
2022/11/24 04:23:07;;;;;;;17.52;3.08;;;8.40;99.90;;;-144.05;72.66;125687.94;5017962;28;20109;-81
2022/11/24 04:25:34;;;;;;;13.20;3.38;;;8.40;99.90;;;-144.05;72.49;125687.94;5017491;28;20032;-83
2022/11/24 04:28:00;;;;;;;22.60;3.92;;;8.50;99.90;;;-144.05;72.40;125687.94;5017798;28;20128;-81
2022/11/24 04:30:28;;;;;;;14.88;4.10;;;8.50;99.90;;;-144.05;72.09;125687.94;5017267;28;20037;-83
2022/11/24 04:32:55;;;;;;;14.27;3.10;;;8.50;99.90;;;-144.05;72.21;125687.94;5015982;28;20508;-82
2022/11/24 04:35:21;;;;;;;14.93;3.03;;;8.50;99.90;;;-144.05;72.39;125687.94;5016538;28;20025;-82
2022/11/24 04:37:47;;;;;;;19.63;4.22;;;8.50;99.90;;;-144.05;72.48;125687.94;4998192;28;20443;-82
2022/11/24 04:40:14;;;;;;;15.50;3.45;;;8.50;99.90;;;-144.05;72.37;125687.94;4999616;28;20061;-82
2022/11/24 04:42:41;;;;;;;15.70;2.65;;;8.60;99.90;;;-144.05;72.17;125687.94;5016194;28;20076;-83
2022/11/24 04:45:08;;;;;;;17.50;2.97;;;8.60;99.90;;;-144.05;72.83;125687.94;5018222;28;20026;-83
2022/11/24 04:47:33;;;;;;;16.73;4.18;;;8.60;99.90;;;-144.05;73.95;125687.94;5017898;28;20038;-82
2022/11/24 04:49:59;;;;;;;14.55;2.72;;;8.60;99.90;;;-144.05;73.99;125687.94;5022622;28;20172;-83
2022/11/24 04:52:26;;;;;;;21.77;4.38;;;8.50;99.90;;;-144.05;73.81;125687.94;5021330;28;20037;-82
2022/11/24 04:54:52;;;;;;;13.93;3.40;;;8.50;99.90;;;-144.05;74.33;125687.94;5019906;28;20113;-84
2022/11/24 04:57:25;;;;;;;19.65;3.08;;;8.50;99.90;;;-144.05;74.76;125687.94;5021354;28;20026;-84
2022/11/24 04:59:53;;;;;;;19.02;4.13;;;8.50;99.90;;;-144.05;74.72;125687.94;5021737;28;20032;-80
2022/11/24 05:02:20;;;;;;;20.35;3.40;;;8.40;99.90;;;-144.05;74.91;125687.94;5022282;28;20034;-84
2022/11/24 05:04:46;;;;;;;23.23;4.10;;;8.40;99.90;;;-144.05;75.35;125687.94;5020946;28;20068;-84
2022/11/24 05:07:15;;;;;;;23.05;3.83;;;8.40;99.90;;;-144.05;75.38;125687.94;5003396;28;20124;-82
2022/11/24 05:12:30;;;;;;;13.85;3.90;;;8.40;99.90;;;-144.05;75.50;125687.94;5029609;28;20048;-80
2022/11/24 05:14:59;;;;;;;20.23;3.05;;;8.40;99.90;;;-144.05;75.73;125687.94;5033107;28;20569;-80
2022/11/24 05:17:35;;;;;;;23.25;3.97;;;8.40;99.90;;;-144.05;75.66;125687.94;5036266;28;20030;-79
2022/11/24 05:20:01;;;;;;;12.77;3.45;;;8.40;99.90;;;-144.05;75.38;125687.94;5019537;28;20030;-82
2022/11/24 05:22:29;;;;;;;16.20;4.30;;;8.40;99.90;;;-144.05;75.53;125687.94;5036524;28;20049;-82
2022/11/24 05:24:55;;;;;;;20.17;4.20;;;8.50;99.90;;;-144.05;75.82;125687.94;5038542;28;20089;-77
2022/11/24 05:27:21;;;;;;;21.55;5.05;;;8.50;99.90;;;-144.05;75.99;125687.94;5037300;28;20022;-81
2022/11/24 05:29:48;;;;;;;19.67;3.28;;;8.50;99.90;;;-144.05;76.21;125687.94;5005162;28;20094;-82
2022/11/24 05:32:14;;;;;;;16.60;3.42;;;8.50;99.90;;;-144.05;75.17;125687.94;5022145;28;20030;-82
2022/11/24 05:34:40;;;;;;;23.55;4.88;;;8.60;99.90;;;-144.05;75.06;125687.94;5020883;28;20021;-82
2022/11/24 05:37:07;;;;;;;23.88;3.50;;;8.60;99.90;;;-144.05;75.50;125687.94;5020603;28;20405;-80
2022/11/24 05:39:35;;;;;;;16.17;3.80;;;8.60;99.90;;;-144.05;75.48;125687.94;5019095;28;20488;-80
2022/11/24 05:42:39;;;;;;;22.50;3.33;;;8.60;99.90;;;-144.05;75.30;125687.94;5019634;28;20034;-81
2022/11/24 05:44:51;;;;;;;22.65;4.95;;;8.60;99.90;;;-144.05;75.50;125687.94;5019547;28;20042;-84
2022/11/24 05:47:17;;;;;;;15.82;3.97;;;8.60;99.90;;;-144.05;75.33;125687.94;5020003;28;20084;-81
2022/11/24 05:49:43;;;;;;;25.10;5.30;;;8.60;99.90;;;-144.05;75.09;125687.94;5000874;28;20030;-77
2022/11/24 05:52:10;;;;;;;22.58;5.05;;;8.60;99.90;;;-144.05;75.10;125687.94;5018055;28;20034;-80
2022/11/24 05:54:36;;;;;;;17.08;3.20;;;8.50;99.90;;;-144.05;75.01;125687.94;5016988;28;20033;-80
2022/11/24 05:57:02;;;;;;;19.25;4.03;;;8.50;99.90;;;-144.05;75.20;125687.94;5018010;28;20030;-78
2022/11/24 05:59:28;;;;;;;17.48;4.75;;;8.60;99.90;;;-144.05;75.10;125687.94;5016734;28;20032;-81
2022/11/24 06:01:53;;;;;;;15.57;3.88;;;8.60;99.90;;;-144.05;74.93;125687.94;5019717;28;20026;-82
2022/11/24 06:04:19;;;;;;;18.90;3.65;;;8.60;99.90;;;-144.05;74.63;125687.94;5004565;28;20033;-80
2022/11/24 06:06:46;;;;;;;20.25;4.15;;;8.60;99.90;;;-144.05;74.54;125687.94;5000996;28;20438;-78
2022/11/24 06:09:12;;;;;;;26.10;4.72;;;8.70;99.90;;;-144.05;74.31;125687.94;5018498;28;20045;-79
2022/11/24 06:11:38;;;;;;;21.52;4.50;;;8.70;99.90;;;-144.05;73.99;125687.94;5019826;28;20084;-78
2022/11/24 06:14:04;;;;;;;20.50;5.35;;;8.70;99.90;;;-144.05;74.14;125687.94;5018169;28;20062;-79
2022/11/24 06:16:30;;;;;;;27.25;4.78;;;8.70;99.90;;;-144.05;73.79;125687.94;5018778;28;20037;-80
2022/11/24 06:18:56;;;;;;;21.60;4.10;;;8.70;99.90;;;-144.05;74.16;125687.94;5018541;28;20037;-80
2022/11/24 06:21:22;;;;;;;24.67;4.47;;;8.70;99.90;;;-144.05;73.89;125687.94;5016569;28;20444;-80
2022/11/24 06:23:48;;;;;;;20.67;4.63;;;8.70;99.90;;;-144.05;73.88;125687.94;5000336;28;20029;-81
2022/11/24 06:26:16;;;;;;;23.65;3.75;;;8.70;99.90;;;-144.05;73.82;125687.94;5017684;28;20036;-82
2022/11/24 06:28:43;;;;;;;26.10;5.45;;;8.80;99.90;;;-144.05;73.17;125687.94;5017890;28;20026;-80
2022/11/24 06:31:09;;;;;;;23.27;4.43;;;8.80;99.90;;;-144.05;73.56;125687.94;5017803;28;20030;-80
2022/11/24 06:33:37;;;;;;;21.42;5.05;;;8.80;99.90;;;-144.05;73.38;125687.94;5016450;28;20029;-83
2022/11/24 06:36:12;;;;;;;21.13;5.05;;;8.80;99.90;;;-144.05;73.29;125687.94;5017956;28;20041;-80
2022/11/24 06:38:38;;;;;;;19.90;4.18;;;8.80;99.90;;;-144.05;73.07;125687.94;5017345;28;20430;-82
2022/11/24 06:41:11;;;;;;;21.00;3.40;;;8.90;99.90;;;-144.05;73.30;125687.94;5021252;28;20088;-80
2022/11/24 06:43:37;;;;;;;19.35;3.97;;;8.90;99.90;;;-144.05;73.02;125687.94;5003171;28;20052;-80
2022/11/24 06:46:03;;;;;;;19.90;4.28;;;9.00;99.90;;;-144.05;72.76;125687.94;5017523;28;20034;-81
2022/11/24 06:48:30;;;;;;;19.45;3.90;;;8.90;99.90;;;-144.05;72.78;125687.94;5020268;28;20140;-80
2022/11/24 06:51:02;;;;;;;22.13;3.75;;;8.90;99.90;;;-144.05;72.29;125687.94;5000902;28;20022;-82
2022/11/24 06:53:36;;;;;;;26.27;4.38;;;8.90;99.90;;;-144.05;72.10;125687.94;5020134;28;20022;-79
2022/11/24 06:56:10;;;;;;;20.73;4.15;;;8.90;99.90;;;-144.05;72.49;125687.94;5022672;28;20054;-79
2022/11/24 06:58:46;;;;;;;17.55;3.58;;;8.90;99.90;;;-144.05;71.99;125687.94;5021244;28;20029;-81
2022/11/24 07:01:24;;;;;;;;;;;9.00;99.90;;;-144.05;71.82;125687.94;5020419;28;20026;-81
2022/11/24 07:03:52;;;;;;;18.90;4.93;;;9.00;99.90;;;-144.05;72.44;125687.94;5021444;28;19909;-81
2022/11/24 07:06:21;;;;;;;25.85;4.55;;;9.00;99.90;;;-144.05;71.84;125687.94;5018317;28;20030;-83
2022/11/24 07:08:48;;;;;;;12.30;4.07;;;8.90;99.90;;;-144.05;71.57;125687.94;5019394;28;20122;-79
2022/11/24 07:11:21;;;;;;;17.70;3.53;;;9.00;99.90;;;-144.05;71.25;125687.94;5018494;28;20037;-80
2022/11/24 07:13:48;;;;;;;16.60;2.75;;;9.00;99.90;;;-144.05;71.13;125687.94;5019561;28;20026;-80
2022/11/24 07:16:22;;;;;;;21.67;4.07;;;9.00;99.90;;;-144.05;70.66;125687.94;5002344;28;20038;-81
2022/11/24 07:18:51;;;;;;;23.77;3.60;;;9.00;99.90;;;-144.05;70.48;125687.94;5019756;28;20036;-82
2022/11/24 07:21:20;;;;;;;19.60;3.80;;;9.00;99.90;;;-144.05;70.21;125687.94;5024380;28;20033;-77
2022/11/24 07:23:56;;;;;;;18.13;3.30;;;9.10;99.90;;;-144.05;69.87;125687.94;5022693;28;20022;-80
2022/11/24 07:26:23;;;;;;;24.20;4.13;;;9.10;99.90;;;-144.05;70.11;125687.94;5019755;28;20055;-80
2022/11/24 07:28:50;;;;;;;17.45;4.30;;;9.00;99.90;;;-144.05;69.99;125687.94;5003653;28;20069;-80
2022/11/24 07:31:21;;;;;;;12.88;4.20;;;9.00;99.90;;;-144.05;69.92;125687.94;5020794;28;20030;-81
2022/11/24 07:33:51;;;;;;;20.52;3.10;;;9.00;99.90;;;-144.05;69.78;125687.94;5020031;28;20037;-81
2022/11/24 07:36:18;;;;;;;22.25;3.80;;;9.00;99.90;;;-144.05;69.48;125687.94;5020147;28;20434;-80
2022/11/24 07:38:44;;;;;;;16.35;3.28;;;9.00;99.90;;;-144.05;69.46;125687.94;5019518;28;20512;-78
2022/11/24 07:41:14;;;;;;;16.02;3.05;;;8.90;99.90;;;-144.05;69.53;125687.94;5001935;28;20137;-80
2022/11/24 07:43:41;;;;;;;7.75;2.35;;;8.90;99.90;;;-144.05;69.26;125687.94;5019193;28;20121;-79
2022/11/24 07:46:12;;;;;;;10.93;2.10;;;8.90;99.90;;;-144.05;69.28;125687.94;5020792;28;20040;-80
2022/11/24 07:48:39;;;;;;;15.77;3.63;;;9.00;99.90;;;-144.05;68.57;125687.94;5019683;28;20053;-78
2022/11/24 07:51:06;;;;;;;13.30;3.40;;;9.00;99.90;;;-144.05;68.21;125687.94;5003092;28;20049;-79
2022/11/24 07:53:33;;;;;;;11.63;2.90;;;9.10;99.90;;;-144.05;68.05;125687.94;5020555;28;20057;-81
2022/11/24 07:56:02;;;;;;;7.78;2.22;;;9.10;99.90;;;-144.05;67.87;125687.94;5020552;28;20053;-83
2022/11/24 07:58:33;;;;;;;6.65;1.85;;;9.20;99.90;;;-144.05;67.93;125687.94;5023130;28;20029;-80
2022/11/24 08:01:10;;;;;;;9.73;2.35;;;9.20;99.90;;;-144.05;67.65;125687.94;5019375;28;20030;-82
2022/11/24 08:03:36;;;;;;;11.18;2.05;;;9.20;99.90;;;-144.05;67.51;125687.94;5019445;28;20025;-82
2022/11/24 08:06:02;;;;;;;15.55;2.40;;;9.20;99.90;;;-144.05;66.98;125687.94;5020871;28;20026;-79
2022/11/24 08:08:32;;;;;;;8.15;1.83;;;9.20;99.90;;;-144.05;66.87;125687.94;5019395;28;20030;-80
2022/11/24 08:11:02;;;;;;;13.65;1.98;;;9.20;99.90;;;-144.05;66.38;125687.94;5003055;28;20022;-83
2022/11/24 08:13:28;;;;;;;9.48;1.92;;;9.30;99.90;;;-144.05;66.58;125687.94;5019737;28;20045;-77
2022/11/24 08:15:54;;;;;;;9.43;1.75;;;9.20;99.90;;;-144.05;66.70;125687.94;5022932;28;20050;-80
2022/11/24 08:18:23;;;;;;;7.22;1.88;;;9.20;99.90;;;-144.05;66.66;125687.94;5004003;28;20084;-81
2022/11/24 08:20:49;;;;;;;7.43;1.85;;;9.20;99.90;;;-144.05;66.56;125687.94;5019024;28;20033;-78
2022/11/24 08:23:15;;;;;;;9.25;1.60;;;9.20;99.90;;;-144.05;67.98;125687.94;5019156;28;20073;-78
2022/11/24 08:25:40;;;;;;;6.60;1.80;;;9.10;99.90;;;-144.05;68.88;125687.94;5019536;28;20042;-82
2022/11/24 08:28:06;;;;;;;7.90;1.80;;;9.00;99.90;;;-144.05;69.29;125687.94;5016463;28;20049;-81
2022/11/24 08:30:32;;;;;;;5.38;1.63;;;8.90;99.90;;;-144.05;69.05;125687.94;5015744;28;20030;-79
2022/11/24 08:32:59;;;;;;;7.28;1.40;;;8.80;99.90;;;-144.05;68.72;125687.94;5015585;28;20472;-79
2022/11/24 08:35:27;;;;;;;5.78;1.10;;;8.80;99.90;;;-144.05;68.76;125687.94;5014305;28;20026;-79
2022/11/24 08:37:53;;;;;;;15.18;2.10;;;8.80;99.90;;;-144.05;68.57;125687.94;5015578;28;20079;-79
2022/11/24 08:40:19;;;;;;;5.45;1.80;;;8.80;99.90;;;-144.05;68.91;125687.94;5015861;28;20033;-79
2022/11/24 08:42:45;;;;;;;9.27;1.45;;;8.80;99.90;;;-144.05;68.89;125687.94;5017055;28;20025;-80
2022/11/24 08:45:12;;;;;;;8.38;2.08;;;8.80;99.90;;;-144.05;69.14;125687.94;4997938;28;20053;-80
2022/11/24 08:47:38;;;;;;;6.55;1.65;;;8.80;99.90;;;-144.05;68.78;125687.94;4998636;28;20110;-79
2022/11/24 08:50:05;;;;;;;4.07;1.25;;;8.80;99.90;;;-144.05;68.33;125687.94;5014962;28;20122;-79
2022/11/24 08:52:31;;;;;;;6.07;1.40;;;8.80;99.90;;;-144.05;68.64;125687.94;5015060;28;20084;-80
2022/11/24 08:54:57;;;;;;;7.40;1.40;;;8.90;99.90;;;-144.05;68.17;125687.94;5015872;28;20026;-79
2022/11/24 08:57:23;;;;;;;7.50;1.17;;;8.90;99.90;;;-144.05;67.33;125687.94;5017408;28;20034;-78
2022/11/24 08:59:49;;;;;;;4.95;1.25;;;9.00;99.90;;;-144.05;67.87;125687.94;5006538;28;20026;-80
2022/11/24 09:02:15;;;;;;;5.75;1.10;;;9.00;99.90;;;-144.05;67.78;125687.94;5017665;28;20030;-81
2022/11/24 09:04:42;;;;;;;6.03;1.30;;;9.00;99.90;;;-144.05;67.48;125687.94;5022041;28;20030;-82
2022/11/24 09:07:08;;;;;;;7.90;1.50;;;9.00;99.90;;;-144.05;67.20;125687.94;5023634;28;20036;-82
2022/11/24 09:09:33;;;;;;;3.83;0.82;;;9.10;99.90;;;-144.05;67.38;125687.94;5017022;28;20030;-79
2022/11/24 09:11:59;;;;;;;4.18;1.23;;;9.10;99.90;;;-144.05;66.57;125687.94;5016583;28;20132;-77
2022/11/24 09:14:25;;;;;;;5.65;1.10;;;9.20;99.90;;;-144.05;66.46;125687.94;5020618;28;20034;-79
2022/11/24 09:16:51;;;;;;;7.68;1.42;;;9.20;99.90;;;-144.05;66.80;125687.94;5014314;28;20030;-79
2022/11/24 09:19:17;;;;;;;3.92;1.70;;;9.20;99.90;;;-144.05;67.46;125687.94;5015568;28;20034;-79
2022/11/24 09:21:43;;;;;;;9.43;1.40;;;9.20;99.90;;;-144.05;67.78;125687.94;5017943;28;20018;-80
2022/11/24 09:24:09;;;;;;;6.60;1.83;;;9.10;99.90;;;-144.05;67.68;125687.94;5017240;28;20034;-80
2022/11/24 09:26:37;;;;;;;5.20;1.40;;;9.10;99.90;;;-144.05;68.43;125687.94;4999071;28;20034;-81
2022/11/24 09:29:06;;;;;;;6.93;1.98;;;9.00;99.90;;;-144.05;68.87;125687.94;4998902;28;20507;-79
2022/11/24 09:31:36;;;;;;;9.52;1.90;;;9.00;99.90;;;-144.05;70.07;125687.94;5016464;28;20117;-82
2022/11/24 09:34:14;;;;;;;5.28;1.58;;;8.90;99.90;;;-144.05;70.42;125687.94;5017377;28;20478;-81
2022/11/24 09:36:41;;;;;;;8.20;1.67;;;8.90;99.90;;;-144.05;70.78;125687.94;5018564;28;20038;-79
2022/11/24 09:39:08;;;;;;;9.55;1.73;;;9.00;99.90;;;-144.05;70.14;125687.94;5020098;28;20037;-81
2022/11/24 09:42:27;;;;;;;7.70;1.67;;;9.00;99.90;;;-144.05;70.36;125687.94;5019197;28;20018;-80
2022/11/24 09:45:11;;;;;;;10.40;1.92;;;9.00;99.90;;;-144.05;70.62;125687.94;5018992;28;20032;-79
2022/11/24 09:48:27;;;;;;;6.18;1.50;;;9.10;99.90;;;-144.05;70.07;125687.94;5017752;28;20489;-79
2022/11/24 09:51:00;;;;;;;6.38;1.48;;;9.00;99.90;;;-144.05;71.00;125687.94;5001513;28;20036;-79
2022/11/24 09:53:55;;;;;;;5.25;1.48;;;9.00;99.90;;;-144.05;70.71;125687.94;5021286;28;20030;-78
2022/11/24 09:56:29;;;;;;;8.77;1.45;;;8.90;99.90;;;-144.05;70.91;125687.94;5024579;28;20572;-77
2022/11/24 09:59:21;;;;;;;8.27;1.85;;;8.90;99.90;;;-144.05;70.84;125687.94;5024694;28;20038;-81
2022/11/24 10:01:50;;;;;;;11.63;2.03;;;8.90;99.90;;;-144.05;70.80;125687.94;5018467;28;20144;-82
2022/11/24 10:04:27;;;;;;;8.40;1.92;;;8.90;99.90;;;-144.05;70.76;125687.94;5001365;28;20117;-79
2022/11/24 10:07:10;;;;;;;10.43;2.10;;;9.00;99.90;;;-144.05;70.34;125687.94;5001215;28;20434;-78
2022/11/24 10:10:17;;;;;;;9.70;2.78;;;9.10;99.90;;;-144.05;69.88;125687.94;5018600;28;20029;-82
2022/11/24 10:13:11;;;;;;;10.18;2.00;;;9.10;99.90;;;-144.05;69.93;125687.94;5020020;28;20447;-81
2022/11/24 10:16:43;;;;;;;10.95;2.50;;;9.20;99.90;;;-144.05;69.50;125687.94;5018771;28;20044;-77